createdAt,value
2023-03-03T00:01:37.525Z,3.91
2023-03-03T00:04:05.997Z,3.94
2023-03-03T00:06:34.536Z,3.90
2023-03-03T00:09:02.936Z,3.90
2023-03-03T00:11:31.352Z,3.92
2023-03-03T00:13:59.912Z,3.76
2023-03-03T00:16:33.761Z,3.89
2023-03-03T00:19:02.429Z,3.77
2023-03-03T00:21:33.413Z,3.87
2023-03-03T00:24:24.763Z,3.91
2023-03-03T00:26:56.078Z,3.75
2023-03-03T00:29:35.868Z,3.86
2023-03-03T00:32:27.085Z,3.83
2023-03-03T00:34:58.336Z,3.68
2023-03-03T00:37:35.763Z,3.55
2023-03-03T00:40:25.072Z,3.53
2023-03-03T00:42:55.815Z,3.50
2023-03-03T00:45:33.112Z,3.46
2023-03-03T00:48:27.665Z,3.46
2023-03-03T00:51:01.583Z,3.47
2023-03-03T00:53:31.896Z,3.39
2023-03-03T00:56:00.266Z,3.33
2023-03-03T00:58:29.703Z,3.38
2023-03-03T01:00:58.895Z,3.41
2023-03-03T01:03:38.114Z,3.33
2023-03-03T01:06:07.064Z,3.33
2023-03-03T01:08:35.515Z,3.37
2023-03-03T01:11:10.080Z,3.27
2023-03-03T01:13:41.922Z,3.26
2023-03-03T01:16:11.941Z,3.31
2023-03-03T01:18:42.696Z,3.28
2023-03-03T01:21:11.760Z,3.28
2023-03-03T01:23:41.467Z,3.29
2023-03-03T01:26:10.018Z,3.29
2023-03-03T01:28:38.380Z,3.17
2023-03-03T01:31:07.737Z,3.20
2023-03-03T01:33:37.759Z,3.16
2023-03-03T01:36:09.372Z,3.19
2023-03-03T01:38:38.207Z,3.18
2023-03-03T01:41:07.327Z,3.28
2023-03-03T01:43:35.785Z,3.26
2023-03-03T01:46:45.840Z,3.12
2023-03-03T01:49:17.624Z,3.06
2023-03-03T01:51:52.362Z,3.09
2023-03-03T01:54:27.784Z,3.08
2023-03-03T01:57:01.157Z,3.04
2023-03-03T01:59:33.173Z,3.01
2023-03-03T02:02:01.628Z,3.00
2023-03-03T02:04:30.579Z,2.93
2023-03-03T02:07:06.997Z,2.99
2023-03-03T02:09:44.916Z,2.94
2023-03-03T02:12:17.684Z,3.02
2023-03-03T02:14:46.901Z,3.05
2023-03-03T02:17:15.450Z,3.05
2023-03-03T02:19:54.164Z,2.96
2023-03-03T02:22:36.237Z,2.89
2023-03-03T02:25:09.805Z,2.87
2023-03-03T02:27:40.053Z,2.81
2023-03-03T02:30:15.745Z,2.73
2023-03-03T02:32:44.374Z,2.75
2023-03-03T02:35:39.215Z,3.23
2023-03-03T02:38:20.908Z,3.35
2023-03-03T02:41:01.913Z,3.68
2023-03-03T02:43:38.720Z,3.65
2023-03-03T02:46:07.199Z,3.59
2023-03-03T02:48:35.787Z,3.62
2023-03-03T02:51:04.226Z,3.53
2023-03-03T02:53:32.632Z,3.53
2023-03-03T02:56:01.040Z,3.56
2023-03-03T02:58:29.461Z,3.50
2023-03-03T03:00:59.282Z,3.10
2023-03-03T03:03:28.511Z,2.95
2023-03-03T03:05:56.892Z,2.79
2023-03-03T03:08:27.000Z,2.55
2023-03-03T03:10:56.954Z,2.52
2023-03-03T03:13:27.004Z,2.43
2023-03-03T03:15:55.605Z,2.47
2023-03-03T03:18:25.384Z,2.42
2023-03-03T03:20:56.439Z,2.33
2023-03-03T03:23:24.880Z,2.24
2023-03-03T03:25:53.277Z,2.32
2023-03-03T03:28:28.536Z,2.25
2023-03-03T03:30:57.313Z,2.29
2023-03-03T03:33:28.269Z,2.24
2023-03-03T03:35:58.308Z,2.18
2023-03-03T03:38:29.747Z,2.22
2023-03-03T03:40:58.426Z,2.22
2023-03-03T03:43:28.675Z,2.22
2023-03-03T03:45:57.391Z,2.19
2023-03-03T03:48:28.515Z,2.12
2023-03-03T03:50:57.599Z,2.15
2023-03-03T03:53:28.341Z,1.97
2023-03-03T03:55:56.845Z,2.02
2023-03-03T03:58:25.429Z,2.08
2023-03-03T04:01:04.710Z,1.99
2023-03-03T04:03:35.838Z,2.03
2023-03-03T04:06:07.601Z,1.96
2023-03-03T04:08:36.345Z,1.79
2023-03-03T04:11:05.544Z,1.84
2023-03-03T04:13:35.344Z,1.88
2023-03-03T04:16:07.494Z,1.80
2023-03-03T04:18:38.271Z,1.75
2023-03-03T04:21:07.198Z,1.77
2023-03-03T04:23:35.711Z,1.69
2023-03-03T04:26:05.010Z,1.60
2023-03-03T04:28:33.764Z,1.52
2023-03-03T04:31:03.235Z,1.56
2023-03-03T04:33:33.088Z,1.49
2023-03-03T04:36:04.671Z,1.43
2023-03-03T04:38:33.093Z,1.45
2023-03-03T04:41:01.742Z,1.52
2023-03-03T04:43:34.871Z,1.41
2023-03-03T04:46:03.930Z,1.43
2023-03-03T04:48:32.996Z,1.34
2023-03-03T04:51:01.399Z,1.32
2023-03-03T04:53:31.459Z,1.31
2023-03-03T04:56:00.045Z,1.28
2023-03-03T04:58:28.465Z,1.04
2023-03-03T05:00:58.760Z,1.04
2023-03-03T05:03:29.750Z,1.02
2023-03-03T05:05:58.158Z,1.07
2023-03-03T05:08:26.617Z,1.05
2023-03-03T05:10:56.726Z,1.01
2023-03-03T05:13:25.108Z,0.96
2023-03-03T05:15:55.490Z,0.90
2023-03-03T05:18:25.273Z,0.76
2023-03-03T05:20:55.415Z,0.70
2023-03-03T05:23:24.540Z,0.70
2023-03-03T05:25:52.965Z,0.82
2023-03-03T05:28:22.824Z,0.84
2023-03-03T05:30:51.290Z,0.59
2023-03-03T05:33:19.892Z,0.62
2023-03-03T05:35:48.636Z,0.72
2023-03-03T05:38:17.256Z,0.67
2023-03-03T05:40:45.870Z,0.57
2023-03-03T05:43:14.448Z,0.51
2023-03-03T05:45:44.353Z,0.60
2023-03-03T05:48:12.788Z,0.62
2023-03-03T05:50:41.171Z,0.65
2023-03-03T05:53:09.649Z,0.65
2023-03-03T05:55:38.122Z,0.66
2023-03-03T05:58:06.550Z,0.62
2023-03-03T06:00:34.994Z,0.73
2023-03-03T06:03:05.008Z,0.56
2023-03-03T06:05:33.496Z,0.68
2023-03-03T06:08:01.968Z,0.62
2023-03-03T06:10:30.338Z,0.60
2023-03-03T06:13:01.421Z,0.67
2023-03-03T06:15:30.032Z,0.82
2023-03-03T06:17:58.724Z,0.80
2023-03-03T06:20:28.678Z,0.82
2023-03-03T06:22:57.160Z,0.76
2023-03-03T06:25:25.740Z,0.83
2023-03-03T06:27:54.258Z,0.84
2023-03-03T06:30:22.923Z,0.82
2023-03-03T06:32:51.330Z,1.00
2023-03-03T06:35:19.883Z,0.98
2023-03-03T06:37:50.930Z,0.93
2023-03-03T06:40:19.731Z,0.94
2023-03-03T06:42:48.314Z,0.89
2023-03-03T06:45:16.904Z,0.96
2023-03-03T06:47:45.423Z,0.96
2023-03-03T06:50:14.671Z,0.92
2023-03-03T06:52:43.109Z,0.97
2023-03-03T06:55:24.167Z,1.10
2023-03-03T06:57:55.870Z,1.12
2023-03-03T07:00:30.853Z,1.24
2023-03-03T07:03:03.310Z,1.32
2023-03-03T07:05:33.181Z,1.21
2023-03-03T07:08:01.725Z,1.28
2023-03-03T07:10:32.722Z,1.49
2023-03-03T07:13:18.956Z,1.65
2023-03-03T07:15:49.207Z,1.66
2023-03-03T07:18:39.313Z,1.50
2023-03-03T07:21:21.182Z,1.53
2023-03-03T07:23:52.784Z,1.68
2023-03-03T07:26:30.740Z,1.40
2023-03-03T07:29:02.563Z,1.49
2023-03-03T07:31:38.573Z,1.46
2023-03-03T07:34:22.040Z,1.49
2023-03-03T07:36:51.962Z,1.63
2023-03-03T07:39:35.153Z,1.68
2023-03-03T07:42:29.518Z,1.63
2023-03-03T07:45:28.144Z,1.89
2023-03-03T07:48:10.926Z,1.95
2023-03-03T07:50:39.448Z,1.83
2023-03-03T07:53:23.389Z,1.74
2023-03-03T07:55:51.788Z,1.75
2023-03-03T07:58:30.541Z,1.65
2023-03-03T08:01:34.713Z,1.71
2023-03-03T08:04:04.510Z,1.66
2023-03-03T08:06:43.698Z,1.78
2023-03-03T08:09:48.190Z,1.99
2023-03-03T08:12:41.927Z,2.02
2023-03-03T08:15:23.758Z,2.05
2023-03-03T08:17:55.037Z,2.02
2023-03-03T08:20:47.681Z,2.11
2023-03-03T08:23:18.130Z,2.01
2023-03-03T08:25:48.425Z,2.27
2023-03-03T08:28:17.497Z,2.12
2023-03-03T08:30:48.026Z,2.09
2023-03-03T08:33:16.959Z,2.19
2023-03-03T08:35:45.612Z,2.32
2023-03-03T08:38:17.087Z,2.35
2023-03-03T08:40:45.901Z,2.37
2023-03-03T08:43:17.365Z,2.44
2023-03-03T08:45:48.951Z,2.37
2023-03-03T08:48:17.972Z,2.53
2023-03-03T08:50:47.362Z,2.43
2023-03-03T08:53:16.973Z,2.54
2023-03-03T08:55:45.798Z,2.72
2023-03-03T08:58:14.666Z,2.60
2023-03-03T09:00:43.764Z,2.51
2023-03-03T09:03:13.758Z,2.77
2023-03-03T09:05:42.836Z,2.83
2023-03-03T09:08:11.584Z,2.95
2023-03-03T09:10:40.387Z,2.85
2023-03-03T09:13:15.720Z,3.13
2023-03-03T09:15:44.252Z,2.77
2023-03-03T09:18:18.065Z,3.12
2023-03-03T09:20:48.192Z,3.13
2023-03-03T09:23:37.637Z,3.05
2023-03-03T09:26:30.731Z,3.36
2023-03-03T09:29:19.405Z,3.06
2023-03-03T09:31:51.709Z,3.09
2023-03-03T09:34:27.915Z,3.14
2023-03-03T09:37:00.153Z,2.96
2023-03-03T09:39:32.031Z,3.12
2023-03-03T09:42:52.115Z,3.43
2023-03-03T09:45:36.839Z,3.95
2023-03-03T09:48:41.394Z,4.14
2023-03-03T09:51:32.750Z,4.85
2023-03-03T09:54:31.047Z,4.89
2023-03-03T09:57:11.645Z,4.57
2023-03-03T09:59:55.654Z,5.20
2023-03-03T10:02:40.001Z,5.72
2023-03-03T10:05:21.939Z,6.27
2023-03-03T10:08:04.957Z,6.44
2023-03-03T10:10:56.760Z,6.82
2023-03-03T10:13:43.513Z,7.33
2023-03-03T10:16:32.521Z,7.34
2023-03-03T10:19:05.853Z,6.84
2023-03-03T10:21:41.166Z,6.94
2023-03-03T10:24:28.941Z,6.89
2023-03-03T10:27:26.083Z,6.88
2023-03-03T10:30:05.684Z,7.49
2023-03-03T10:32:48.710Z,6.87
2023-03-03T10:36:07.304Z,7.05
2023-03-03T10:38:56.499Z,6.80
2023-03-03T10:41:45.335Z,6.94
2023-03-03T10:44:37.465Z,7.00
2023-03-03T10:47:35.771Z,7.40
2023-03-03T10:50:17.616Z,7.13
2023-03-03T10:53:04.533Z,7.35
2023-03-03T10:56:10.848Z,7.20
2023-03-03T10:59:07.056Z,7.86
2023-03-03T11:01:50.871Z,8.11
2023-03-03T11:04:56.121Z,7.84
2023-03-03T11:07:33.363Z,7.72
2023-03-03T11:10:19.444Z,7.58
2023-03-03T11:13:09.376Z,7.69
2023-03-03T11:16:07.086Z,7.70
2023-03-03T11:19:03.662Z,7.58
2023-03-03T11:21:38.905Z,7.73
2023-03-03T11:24:36.206Z,7.62
2023-03-03T11:27:23.909Z,7.97
2023-03-03T11:30:23.828Z,8.43
2023-03-03T11:33:05.247Z,7.68
2023-03-03T11:35:44.111Z,7.82
2023-03-03T11:38:37.786Z,7.90
2023-03-03T11:41:18.345Z,7.39
2023-03-03T11:43:50.777Z,7.15
2023-03-03T11:46:26.227Z,7.44
2023-03-03T11:49:03.389Z,8.12
2023-03-03T11:51:48.426Z,7.85
2023-03-03T11:54:24.157Z,7.86
2023-03-03T11:56:57.301Z,7.94
2023-03-03T11:59:43.658Z,7.86
2023-03-03T12:02:44.003Z,7.92
2023-03-03T12:05:29.295Z,7.93
2023-03-03T12:08:09.786Z,7.85
2023-03-03T12:10:44.781Z,8.14
2023-03-03T12:13:22.999Z,7.85
2023-03-03T12:15:58.831Z,7.99
2023-03-03T12:18:55.369Z,8.04
2023-03-03T12:21:45.081Z,7.90
2023-03-03T12:24:33.138Z,8.23
2023-03-03T12:27:16.497Z,7.80
2023-03-03T12:29:57.875Z,7.25
2023-03-03T12:32:48.018Z,7.07
2023-03-03T12:35:28.046Z,7.51
2023-03-03T12:38:07.161Z,7.65
2023-03-03T12:40:38.270Z,7.97
2023-03-03T12:43:29.152Z,7.77
2023-03-03T12:46:07.389Z,7.88
2023-03-03T12:48:43.040Z,7.57
2023-03-03T12:51:28.285Z,7.55
2023-03-03T12:54:39.548Z,7.70
2023-03-03T12:57:22.293Z,7.72
2023-03-03T13:00:13.417Z,8.21
2023-03-03T13:02:50.469Z,8.16
2023-03-03T13:05:26.027Z,7.95
2023-03-03T13:08:19.387Z,7.86
2023-03-03T13:10:58.401Z,7.52
2023-03-03T13:13:32.874Z,7.58
2023-03-03T13:16:06.827Z,7.42
2023-03-03T13:18:51.024Z,7.78
2023-03-03T13:21:26.898Z,7.86
2023-03-03T13:24:05.095Z,7.79
2023-03-03T13:26:42.542Z,7.63
2023-03-03T13:29:22.191Z,7.38
2023-03-03T13:31:56.530Z,7.57
2023-03-03T13:34:42.920Z,7.71
2023-03-03T13:37:19.777Z,7.96
2023-03-03T13:39:58.404Z,7.86
2023-03-03T13:42:35.912Z,8.06
2023-03-03T13:45:14.456Z,7.90
2023-03-03T13:47:54.967Z,7.72
2023-03-03T13:50:33.293Z,7.70
2023-03-03T13:53:26.968Z,7.72
2023-03-03T13:56:05.697Z,7.59
2023-03-03T13:58:43.893Z,7.47
2023-03-03T14:01:22.929Z,7.86
2023-03-03T14:04:15.512Z,7.55
2023-03-03T14:06:55.874Z,7.45
2023-03-03T14:09:54.193Z,7.13
2023-03-03T14:12:31.021Z,7.32
2023-03-03T14:15:11.169Z,7.39
2023-03-03T14:17:55.943Z,7.46
2023-03-03T14:20:29.479Z,7.25
2023-03-03T14:23:01.190Z,7.19
2023-03-03T14:25:54.403Z,6.94
2023-03-03T14:28:24.995Z,7.01
2023-03-03T14:30:57.691Z,7.34
2023-03-03T14:33:32.381Z,7.26
2023-03-03T14:36:16.243Z,6.96
2023-03-03T14:38:51.777Z,6.97
2023-03-03T14:41:38.065Z,7.06
2023-03-03T14:44:29.482Z,7.19
2023-03-03T14:47:24.831Z,7.23
2023-03-03T14:49:54.701Z,7.32
2023-03-03T14:52:28.767Z,7.46
2023-03-03T14:55:00.443Z,7.53
2023-03-03T14:57:46.576Z,7.47
2023-03-03T15:00:36.411Z,7.48
2023-03-03T15:03:23.652Z,7.57
2023-03-03T15:05:53.788Z,7.38
2023-03-03T15:08:33.272Z,7.07
2023-03-03T15:11:19.502Z,7.06
2023-03-03T15:13:48.115Z,6.91
2023-03-03T15:16:20.435Z,6.96
2023-03-03T15:19:23.434Z,6.92
2023-03-03T15:22:02.885Z,7.01
2023-03-03T15:24:41.546Z,7.11
2023-03-03T15:27:15.618Z,7.06
2023-03-03T15:29:56.937Z,7.03
2023-03-03T15:32:31.281Z,6.91
2023-03-03T15:35:13.466Z,7.05
2023-03-03T15:37:51.470Z,7.02
2023-03-03T15:40:27.562Z,7.10
2023-03-03T15:43:12.458Z,7.10
2023-03-03T15:45:52.617Z,7.05
2023-03-03T15:48:42.564Z,7.10
2023-03-03T15:51:28.180Z,7.00
2023-03-03T15:54:23.973Z,6.90
2023-03-03T15:56:58.416Z,6.83
2023-03-03T16:00:02.324Z,6.88
2023-03-03T16:02:50.994Z,6.91
2023-03-03T16:05:25.675Z,6.99
2023-03-03T16:08:04.765Z,6.86
2023-03-03T16:10:43.169Z,6.92
2023-03-03T16:13:33.715Z,7.01
2023-03-03T16:16:17.444Z,6.89
2023-03-03T16:19:03.333Z,6.92
2023-03-03T16:22:03.210Z,6.84
2023-03-03T16:24:44.134Z,6.74
2023-03-03T16:27:21.617Z,6.83
2023-03-03T16:30:28.525Z,6.83
2023-03-03T16:33:12.937Z,6.86
2023-03-03T16:35:47.545Z,6.70
2023-03-03T16:38:23.715Z,6.62
2023-03-03T16:40:57.782Z,6.61
2023-03-03T16:43:34.313Z,6.49
2023-03-03T16:46:13.083Z,6.57
2023-03-03T16:48:53.106Z,6.52
2023-03-03T16:51:38.795Z,6.50
2023-03-03T16:54:11.208Z,6.37
2023-03-03T16:56:45.720Z,6.42
2023-03-03T16:59:40.465Z,6.37
2023-03-03T17:02:33.823Z,6.26
2023-03-03T17:05:09.785Z,6.26
2023-03-03T17:07:46.364Z,6.28
2023-03-03T17:10:26.967Z,6.19
2023-03-03T17:13:47.931Z,6.52
2023-03-03T17:16:23.658Z,6.74
2023-03-03T17:19:11.008Z,6.79
2023-03-03T17:21:58.543Z,6.81
2023-03-03T17:24:39.692Z,6.80
2023-03-03T17:27:20.347Z,6.75
2023-03-03T17:29:57.879Z,6.60
2023-03-03T17:32:50.260Z,6.56
2023-03-03T17:35:53.775Z,6.50
2023-03-03T17:38:36.316Z,6.49
2023-03-03T17:41:11.148Z,6.39
2023-03-03T17:43:52.891Z,6.21
2023-03-03T17:46:37.281Z,5.96
2023-03-03T17:49:42.626Z,5.73
2023-03-03T17:52:59.100Z,5.60
2023-03-03T17:56:02.948Z,5.52
2023-03-03T17:58:56.114Z,5.49
2023-03-03T18:01:46.481Z,5.38
2023-03-03T18:04:42.453Z,5.36
2023-03-03T18:07:43.288Z,5.27
2023-03-03T18:10:56.959Z,5.26
2023-03-03T18:13:51.973Z,5.17
2023-03-03T18:16:35.779Z,5.14
2023-03-03T18:19:46.552Z,5.06
2023-03-03T18:22:20.621Z,4.96
2023-03-03T18:25:03.469Z,4.92
2023-03-03T18:27:37.771Z,4.89
2023-03-03T18:30:24.926Z,4.87
2023-03-03T18:33:12.755Z,4.88
2023-03-03T18:35:43.991Z,4.87
2023-03-03T18:38:34.987Z,4.82
2023-03-03T18:41:06.554Z,4.77
2023-03-03T18:44:01.124Z,4.77
2023-03-03T18:46:56.421Z,4.71
2023-03-03T18:49:59.365Z,4.60
2023-03-03T18:52:31.164Z,4.63
2023-03-03T18:55:26.038Z,4.56
2023-03-03T18:58:44.290Z,4.31
2023-03-03T19:01:44.910Z,4.41
2023-03-03T19:04:25.223Z,4.39
2023-03-03T19:07:18.892Z,4.30
2023-03-03T19:09:58.120Z,4.15
2023-03-03T19:12:49.023Z,4.18
2023-03-03T19:15:59.802Z,4.10
2023-03-03T19:18:29.910Z,4.12
2023-03-03T19:21:02.512Z,4.15
2023-03-03T19:23:51.171Z,4.05
2023-03-03T19:26:50.296Z,3.98
2023-03-03T19:29:53.611Z,3.89
2023-03-03T19:33:10.615Z,4.05
2023-03-03T19:35:51.246Z,4.00
2023-03-03T19:38:34.934Z,3.94
2023-03-03T19:41:19.548Z,3.82
2023-03-03T19:43:59.790Z,3.73
2023-03-03T19:46:55.056Z,3.79
2023-03-03T19:49:42.106Z,3.69
2023-03-03T19:52:21.376Z,3.69
2023-03-03T19:55:03.999Z,3.63
2023-03-03T19:57:48.939Z,3.61
2023-03-03T20:00:25.971Z,3.64
2023-03-03T20:03:27.226Z,3.46
2023-03-03T20:06:06.918Z,3.43
2023-03-03T20:08:42.967Z,3.38
2023-03-03T20:11:25.103Z,3.41
2023-03-03T20:14:02.069Z,3.43
2023-03-03T20:16:40.816Z,3.37
2023-03-03T20:19:25.215Z,3.24
2023-03-03T20:22:08.205Z,3.21
2023-03-03T20:25:05.254Z,3.11
2023-03-03T20:27:45.921Z,3.14
2023-03-03T20:30:31.027Z,3.14
2023-03-03T20:33:17.620Z,3.00
2023-03-03T20:35:59.769Z,2.93
2023-03-03T20:38:41.183Z,2.97
2023-03-03T20:41:19.023Z,2.91
2023-03-03T20:44:03.637Z,3.01
2023-03-03T20:46:44.668Z,2.97
2023-03-03T20:49:38.210Z,2.78
2023-03-03T20:52:13.929Z,2.76
2023-03-03T20:54:53.836Z,2.71
2023-03-03T20:57:33.977Z,2.64
2023-03-03T21:00:09.373Z,2.79
2023-03-03T21:02:43.635Z,2.76
2023-03-03T21:05:16.307Z,2.78
2023-03-03T21:07:56.788Z,2.76
2023-03-03T21:10:30.059Z,2.66
2023-03-03T21:13:00.516Z,2.70
2023-03-03T21:15:32.212Z,2.68
2023-03-03T21:18:01.310Z,2.70
2023-03-03T21:20:32.807Z,2.73
2023-03-03T21:23:03.245Z,2.73
2023-03-03T21:25:49.298Z,2.63
2023-03-03T21:28:21.279Z,2.69
2023-03-03T21:31:18.034Z,2.63
2023-03-03T21:33:56.051Z,2.53
2023-03-03T21:36:26.034Z,2.59
2023-03-03T21:38:56.576Z,2.53
2023-03-03T21:41:26.620Z,2.45
2023-03-03T21:43:55.825Z,2.41
2023-03-03T21:46:26.143Z,2.39
2023-03-03T21:48:54.585Z,2.42
2023-03-03T21:51:24.443Z,2.52
2023-03-03T21:53:52.962Z,2.50
2023-03-03T21:56:21.351Z,2.43
2023-03-03T21:58:51.194Z,2.41
2023-03-03T22:01:19.663Z,2.53
2023-03-03T22:03:48.714Z,2.47
2023-03-03T22:06:17.967Z,2.38
2023-03-03T22:08:46.371Z,2.41
2023-03-03T22:11:15.633Z,2.37
2023-03-03T22:13:44.340Z,2.28
2023-03-03T22:16:14.190Z,2.26
2023-03-03T22:18:42.753Z,2.30
2023-03-03T22:21:11.074Z,2.27
2023-03-03T22:23:39.497Z,2.25
2023-03-03T22:26:07.987Z,2.21
2023-03-03T22:28:36.499Z,2.24
2023-03-03T22:31:05.224Z,2.27
2023-03-03T22:33:35.034Z,2.24
2023-03-03T22:36:03.411Z,2.20
2023-03-03T22:38:31.836Z,2.19
2023-03-03T22:41:00.383Z,2.07
2023-03-03T22:43:29.810Z,2.14
2023-03-03T22:45:58.946Z,2.07
2023-03-03T22:48:29.163Z,2.06
2023-03-03T22:50:59.104Z,1.94
2023-03-03T22:53:27.933Z,2.03
2023-03-03T22:55:56.552Z,1.99
2023-03-03T22:58:26.218Z,1.86
2023-03-03T23:00:55.436Z,1.83
2023-03-03T23:03:24.541Z,1.75
2023-03-03T23:05:53.174Z,1.78
2023-03-03T23:08:23.065Z,1.77
2023-03-03T23:10:51.461Z,1.67
2023-03-03T23:13:19.852Z,1.61
2023-03-03T23:15:48.281Z,1.63
2023-03-03T23:18:16.801Z,1.68
2023-03-03T23:20:46.098Z,1.59
2023-03-03T23:23:14.807Z,1.54
2023-03-03T23:25:44.663Z,1.59
2023-03-03T23:28:15.576Z,1.69
2023-03-03T23:30:45.036Z,1.59
2023-03-03T23:33:13.674Z,1.58
2023-03-03T23:35:42.576Z,1.55
2023-03-03T23:38:15.399Z,1.54
2023-03-03T23:40:46.646Z,1.53
2023-03-03T23:43:15.364Z,1.47
2023-03-03T23:45:43.700Z,1.48
2023-03-03T23:48:12.572Z,1.49
2023-03-03T23:50:41.053Z,1.54
2023-03-03T23:53:09.666Z,1.44
2023-03-03T23:55:38.063Z,1.43
2023-03-03T23:58:08.080Z,1.46
